createdAt,value
2018-12-20T00:00:58.618Z,76.75
2018-12-20T00:03:26.028Z,69.15
2018-12-20T00:05:53.295Z,78.78
2018-12-20T00:08:20.577Z,69.60
2018-12-20T00:10:47.821Z,86.95
2018-12-20T00:13:15.202Z,66.22
2018-12-20T00:15:42.555Z,75.60
2018-12-20T00:18:09.881Z,59.63
2018-12-20T00:20:37.163Z,64.32
2018-12-20T00:23:04.646Z,68.30
2018-12-20T00:25:31.896Z,66.77
2018-12-20T00:27:59.102Z,86.67
2018-12-20T00:30:26.338Z,61.88
2018-12-20T00:32:53.645Z,62.93
2018-12-20T00:35:20.988Z,64.72
2018-12-20T00:37:48.298Z,71.87
2018-12-20T00:40:15.571Z,61.33
2018-12-20T00:42:42.890Z,67.62
2018-12-20T00:45:10.311Z,71.07
2018-12-20T00:47:37.585Z,62.73
2018-12-20T00:50:05.560Z,65.22
2018-12-20T00:52:32.810Z,69.20
2018-12-20T00:55:00.165Z,62.27
2018-12-20T00:57:27.572Z,54.80
2018-12-20T00:59:55.000Z,59.05
2018-12-20T01:02:22.367Z,65.78
2018-12-20T01:04:49.662Z,57.45
2018-12-20T01:07:17.020Z,63.30
2018-12-20T01:09:44.371Z,53.98
2018-12-20T01:12:11.673Z,55.88
2018-12-20T01:14:45.279Z,63.42
2018-12-20T01:17:08.181Z,59.03
2018-12-20T01:19:35.420Z,54.42
2018-12-20T01:22:02.919Z,54.38
2018-12-20T01:24:30.346Z,68.22
2018-12-20T01:26:57.590Z,51.45
2018-12-20T01:29:25.009Z,59.67
2018-12-20T01:31:52.437Z,61.88
2018-12-20T01:34:19.681Z,72.60
2018-12-20T01:36:46.883Z,64.40
2018-12-20T01:39:14.376Z,66.15
2018-12-20T01:41:41.602Z,66.10
2018-12-20T01:44:09.083Z,54.63
2018-12-20T01:46:36.546Z,64.82
2018-12-20T01:49:04.292Z,58.08
2018-12-20T01:51:31.581Z,57.13
2018-12-20T01:53:59.106Z,62.27
2018-12-20T01:56:26.498Z,55.15
2018-12-20T01:58:53.864Z,64.67
2018-12-20T02:01:21.359Z,62.10
2018-12-20T02:03:48.731Z,59.20
2018-12-20T02:06:16.104Z,58.15
2018-12-20T02:08:43.341Z,57.90
2018-12-20T02:11:10.824Z,54.80
2018-12-20T02:13:38.228Z,53.48
2018-12-20T02:16:05.537Z,60.43
2018-12-20T02:18:32.796Z,56.58
2018-12-20T02:21:00.032Z,55.90
2018-12-20T02:23:27.341Z,57.55
2018-12-20T02:25:54.597Z,54.45
2018-12-20T02:28:21.932Z,72.92
2018-12-20T02:30:49.430Z,57.75
2018-12-20T02:33:16.713Z,52.48
2018-12-20T02:35:44.203Z,53.55
2018-12-20T02:38:11.649Z,53.15
2018-12-20T02:40:38.988Z,54.08
2018-12-20T02:43:06.239Z,48.40
2018-12-20T02:45:33.771Z,51.35
2018-12-20T02:48:01.067Z,55.03
2018-12-20T02:50:28.553Z,49.93
2018-12-20T02:52:55.901Z,46.73
2018-12-20T02:55:23.136Z,53.38
2018-12-20T02:57:50.366Z,46.08
2018-12-20T03:00:17.978Z,58.20
2018-12-20T03:02:45.482Z,96.63
2018-12-20T03:05:13.017Z,65.20
2018-12-20T03:07:40.529Z,61.53
2018-12-20T03:10:08.163Z,59.60
2018-12-20T03:12:35.519Z,102.95
2018-12-20T03:15:03.897Z,43.58
2018-12-20T03:17:31.333Z,46.77
2018-12-20T03:19:58.962Z,54.20
2018-12-20T03:22:26.588Z,44.90
2018-12-20T03:24:54.182Z,65.28
2018-12-20T03:27:21.649Z,54.88
2018-12-20T03:29:49.096Z,49.33
2018-12-20T03:32:16.405Z,43.63
2018-12-20T03:34:43.737Z,50.35
2018-12-20T03:37:11.132Z,52.33
2018-12-20T03:39:38.382Z,45.45
2018-12-20T03:42:05.777Z,47.90
2018-12-20T03:44:33.193Z,60.25
2018-12-20T03:47:00.565Z,46.60
2018-12-20T03:49:27.838Z,48.15
2018-12-20T03:51:55.148Z,68.37
2018-12-20T03:54:23.056Z,163.07
2018-12-20T03:56:50.324Z,102.42
2018-12-20T03:59:17.882Z,76.65
2018-12-20T04:01:45.222Z,67.40
2018-12-20T04:04:12.693Z,62.60
2018-12-20T04:06:40.002Z,57.40
2018-12-20T04:09:07.659Z,62.25
2018-12-20T04:11:35.101Z,52.08
2018-12-20T04:14:03.143Z,59.77
2018-12-20T04:16:30.719Z,52.43
2018-12-20T04:18:58.291Z,43.90
2018-12-20T04:21:25.628Z,40.78
2018-12-20T04:23:53.015Z,45.45
2018-12-20T04:26:21.233Z,45.95
2018-12-20T04:28:48.463Z,43.33
2018-12-20T04:31:15.699Z,43.42
2018-12-20T04:33:43.274Z,39.78
2018-12-20T04:36:10.799Z,38.42
2018-12-20T04:38:38.498Z,38.45
2018-12-20T04:41:06.179Z,37.30
2018-12-20T04:43:33.698Z,39.88
2018-12-20T04:46:01.029Z,36.95
2018-12-20T04:48:28.566Z,36.60
2018-12-20T04:50:55.873Z,35.50
2018-12-20T04:53:23.420Z,30.08
2018-12-20T04:55:50.939Z,31.80
2018-12-20T04:58:18.390Z,29.52
2018-12-20T05:00:45.758Z,29.55
2018-12-20T05:03:13.354Z,27.17
2018-12-20T05:05:40.729Z,29.82
2018-12-20T05:08:08.075Z,24.92
2018-12-20T05:10:35.396Z,26.17
2018-12-20T05:13:02.889Z,26.68
2018-12-20T05:15:30.266Z,25.52
2018-12-20T05:17:57.780Z,30.95
2018-12-20T05:20:25.251Z,30.57
2018-12-20T05:22:52.774Z,27.82
2018-12-20T05:25:20.206Z,28.05
2018-12-20T05:27:47.753Z,27.13
2018-12-20T05:30:15.252Z,26.25
2018-12-20T05:32:42.594Z,26.68
2018-12-20T05:35:10.163Z,24.27
2018-12-20T05:37:37.689Z,23.83
2018-12-20T05:40:06.570Z,26.48
2018-12-20T05:42:33.901Z,27.93
2018-12-20T05:45:01.597Z,24.37
2018-12-20T05:47:29.154Z,26.48
2018-12-20T05:49:56.685Z,29.40
2018-12-20T05:52:24.082Z,25.75
2018-12-20T05:54:51.398Z,29.95
2018-12-20T05:57:18.650Z,26.75
2018-12-20T05:59:45.964Z,25.68
2018-12-20T06:02:13.191Z,26.02
2018-12-20T06:04:40.551Z,26.70
2018-12-20T06:07:08.009Z,27.58
2018-12-20T06:09:35.528Z,25.32
2018-12-20T06:12:02.884Z,26.12
2018-12-20T06:14:30.281Z,29.15
2018-12-20T06:16:57.479Z,21.85
2018-12-20T06:19:24.784Z,24.10
2018-12-20T06:21:52.028Z,25.12
2018-12-20T06:24:19.235Z,21.90
2018-12-20T06:26:46.448Z,27.25
2018-12-20T06:29:13.670Z,23.10
2018-12-20T06:31:40.908Z,23.52
2018-12-20T06:34:08.100Z,22.45
2018-12-20T06:36:35.322Z,19.62
2018-12-20T06:39:05.017Z,17.55
2018-12-20T06:41:32.236Z,15.95
2018-12-20T06:44:06.984Z,18.35
2018-12-20T06:46:28.853Z,18.82
2018-12-20T06:48:56.072Z,15.30
2018-12-20T06:51:23.289Z,14.38
2018-12-20T06:53:50.521Z,15.30
2018-12-20T06:56:17.717Z,16.73
2018-12-20T06:58:44.933Z,18.62
2018-12-20T07:01:12.149Z,17.57
2018-12-20T07:03:39.394Z,16.82
2018-12-20T07:06:06.592Z,14.70
2018-12-20T07:08:33.817Z,13.95
2018-12-20T07:11:01.028Z,19.70
2018-12-20T07:13:28.257Z,15.70
2018-12-20T07:15:55.641Z,17.30
2018-12-20T07:18:22.845Z,19.90
2018-12-20T07:20:50.069Z,17.02
2018-12-20T07:23:17.311Z,15.75
2018-12-20T07:25:44.518Z,18.00
2018-12-20T07:28:11.739Z,17.85
2018-12-20T07:30:38.969Z,16.60
2018-12-20T07:33:06.201Z,17.65
2018-12-20T07:35:33.409Z,16.85
2018-12-20T07:38:00.619Z,19.55
2018-12-20T07:40:27.816Z,18.73
2018-12-20T07:42:55.025Z,15.85
2018-12-20T07:45:22.238Z,16.25
2018-12-20T07:47:49.453Z,16.40
2018-12-20T07:50:16.690Z,14.40
2018-12-20T07:52:43.917Z,14.58
2018-12-20T07:55:11.156Z,13.70
2018-12-20T07:57:38.363Z,16.07
2018-12-20T08:00:05.979Z,16.07
2018-12-20T08:02:33.195Z,13.53
2018-12-20T08:05:00.409Z,12.15
2018-12-20T08:07:27.625Z,12.78
2018-12-20T08:09:54.981Z,14.35
2018-12-20T08:12:22.204Z,13.10
2018-12-20T08:14:49.496Z,12.33
2018-12-20T08:17:16.730Z,12.73
2018-12-20T08:19:43.936Z,12.78
2018-12-20T08:22:11.265Z,13.13
2018-12-20T08:24:38.476Z,12.05
2018-12-20T08:27:05.672Z,11.75
2018-12-20T08:29:32.908Z,11.90
2018-12-20T08:32:00.121Z,9.70
2018-12-20T08:34:27.349Z,12.53
2018-12-20T08:36:54.574Z,10.23
2018-12-20T08:39:21.919Z,10.68
2018-12-20T08:41:49.260Z,10.23
2018-12-20T08:44:16.469Z,8.60
2018-12-20T08:46:44.065Z,12.53
2018-12-20T08:49:11.684Z,7.70
2018-12-20T08:51:39.270Z,11.20
2018-12-20T08:54:06.499Z,9.38
2018-12-20T08:56:33.731Z,10.75
2018-12-20T08:59:00.945Z,8.83
2018-12-20T09:01:28.177Z,8.40
2018-12-20T09:03:55.500Z,8.35
2018-12-20T09:06:22.840Z,7.97
2018-12-20T09:08:50.193Z,7.97
2018-12-20T09:11:17.428Z,14.20
2018-12-20T09:13:44.653Z,7.05
2018-12-20T09:16:11.989Z,10.05
2018-12-20T09:18:39.195Z,6.42
2018-12-20T09:21:06.820Z,8.43
2018-12-20T09:23:34.036Z,7.42
2018-12-20T09:26:01.267Z,10.43
2018-12-20T09:28:28.492Z,9.18
2018-12-20T09:30:55.704Z,8.85
2018-12-20T09:33:23.044Z,6.58
2018-12-20T09:35:50.368Z,7.80
2018-12-20T09:38:17.588Z,8.10
2018-12-20T09:40:44.817Z,6.30
2018-12-20T09:43:12.951Z,6.80
2018-12-20T09:45:40.229Z,5.03
2018-12-20T09:48:07.593Z,7.92
2018-12-20T09:50:34.905Z,11.40
2018-12-20T09:53:02.141Z,9.70
2018-12-20T09:55:29.369Z,6.30
2018-12-20T09:57:56.606Z,8.98
2018-12-20T10:00:23.942Z,7.37
2018-12-20T10:02:51.164Z,6.60
2018-12-20T10:05:18.385Z,8.45
2018-12-20T10:07:45.605Z,8.10
2018-12-20T10:10:12.933Z,8.15
2018-12-20T10:12:40.152Z,6.30
2018-12-20T10:15:07.661Z,11.63
2018-12-20T10:17:34.937Z,5.33
2018-12-20T10:20:02.430Z,7.92
2018-12-20T10:22:29.673Z,11.33
2018-12-20T10:24:56.906Z,8.05
2018-12-20T10:27:31.204Z,6.95
2018-12-20T10:29:53.380Z,8.43
2018-12-20T10:32:20.801Z,4.85
2018-12-20T10:34:48.028Z,6.15
2018-12-20T10:37:15.273Z,5.12
2018-12-20T10:39:42.489Z,4.70
2018-12-20T10:42:09.738Z,7.62
2018-12-20T10:44:37.081Z,7.05
2018-12-20T10:47:09.967Z,5.37
2018-12-20T10:49:37.202Z,7.28
2018-12-20T10:52:04.451Z,8.23
2018-12-20T10:54:31.693Z,4.90
2018-12-20T10:56:58.925Z,6.08
2018-12-20T10:59:26.174Z,5.08
2018-12-20T11:01:59.372Z,5.40
2018-12-20T11:04:29.995Z,4.70
2018-12-20T11:07:02.961Z,4.60
2018-12-20T11:09:35.859Z,4.05
2018-12-20T11:12:08.677Z,5.53
2018-12-20T11:14:36.437Z,7.45
2018-12-20T11:17:03.755Z,5.83
2018-12-20T11:19:30.976Z,3.62
2018-12-20T11:21:58.198Z,4.92
2018-12-20T11:24:25.541Z,6.83
2018-12-20T11:26:52.756Z,5.00
2018-12-20T11:29:19.988Z,7.08
2018-12-20T11:31:47.201Z,4.92
2018-12-20T11:34:14.433Z,3.75
2018-12-20T11:36:41.653Z,4.45
2018-12-20T11:39:08.989Z,3.52
2018-12-20T11:41:36.245Z,4.90
2018-12-20T11:44:03.596Z,6.40
2018-12-20T11:46:30.832Z,7.00
2018-12-20T11:48:58.043Z,4.65
2018-12-20T11:51:25.279Z,3.42
2018-12-20T11:53:52.518Z,5.53
2018-12-20T11:56:19.746Z,3.52
2018-12-20T11:58:46.964Z,5.08
2018-12-20T12:01:14.363Z,7.70
2018-12-20T12:03:41.586Z,5.17
2018-12-20T12:06:09.057Z,3.42
2018-12-20T12:08:36.277Z,3.85
2018-12-20T12:11:03.518Z,3.60
2018-12-20T12:13:30.740Z,5.50
2018-12-20T12:15:57.953Z,3.77
2018-12-20T12:18:25.185Z,3.33
2018-12-20T12:20:52.521Z,3.30
2018-12-20T12:23:19.752Z,3.80
2018-12-20T12:25:46.969Z,3.62
2018-12-20T12:28:14.188Z,3.22
2018-12-20T12:30:41.708Z,7.97
2018-12-20T12:33:09.037Z,5.70
2018-12-20T12:35:36.345Z,4.75
2018-12-20T12:38:03.800Z,5.05
2018-12-20T12:40:31.140Z,3.75
2018-12-20T12:42:58.448Z,4.03
2018-12-20T12:45:25.746Z,2.87
2018-12-20T12:48:03.227Z,4.65
2018-12-20T12:50:28.366Z,4.50
2018-12-20T12:52:55.717Z,3.37
2018-12-20T12:55:23.235Z,3.40
2018-12-20T12:57:50.549Z,4.05
2018-12-20T13:00:19.756Z,4.53
2018-12-20T13:02:47.132Z,3.35
2018-12-20T13:05:14.511Z,2.72
2018-12-20T13:07:41.941Z,2.02
2018-12-20T13:10:09.391Z,3.27
2018-12-20T13:12:36.813Z,4.53
2018-12-20T13:15:05.216Z,1.60
2018-12-20T13:17:32.533Z,2.92
2018-12-20T13:19:59.831Z,4.53
2018-12-20T13:22:27.148Z,2.15
2018-12-20T13:24:54.565Z,2.25
2018-12-20T13:27:21.892Z,3.62
2018-12-20T13:29:49.201Z,1.60
2018-12-20T13:32:16.508Z,2.15
2018-12-20T13:34:43.830Z,2.20
2018-12-20T13:37:15.874Z,2.60
2018-12-20T13:39:40.467Z,3.87
2018-12-20T13:42:07.812Z,9.70
2018-12-20T13:44:35.178Z,3.20
2018-12-20T13:47:02.590Z,2.30
2018-12-20T13:49:29.888Z,3.20
2018-12-20T13:51:57.183Z,4.75
2018-12-20T13:54:24.604Z,2.10
2018-12-20T13:56:51.897Z,1.98
2018-12-20T13:59:19.249Z,8.68
2018-12-20T14:01:46.533Z,2.27
2018-12-20T14:04:13.845Z,2.83
2018-12-20T14:06:41.128Z,2.42
2018-12-20T14:09:08.845Z,2.70
2018-12-20T14:11:36.900Z,2.95
2018-12-20T14:14:04.497Z,3.08
2018-12-20T14:16:31.890Z,2.40
2018-12-20T14:18:59.194Z,2.72
2018-12-20T14:21:26.565Z,2.20
2018-12-20T14:23:53.948Z,3.72
2018-12-20T14:26:21.305Z,3.45
2018-12-20T14:28:48.726Z,3.62
2018-12-20T14:31:16.077Z,5.53
2018-12-20T14:33:43.482Z,1.70
2018-12-20T14:36:10.902Z,3.12
2018-12-20T14:38:38.184Z,3.25
2018-12-20T14:41:05.533Z,2.02
2018-12-20T14:43:32.825Z,2.00
2018-12-20T14:46:00.247Z,4.17
2018-12-20T14:48:29.565Z,2.37
2018-12-20T14:50:56.941Z,4.75
2018-12-20T14:53:24.245Z,3.27
2018-12-20T14:55:51.545Z,2.40
2018-12-20T14:58:18.858Z,2.17
2018-12-20T15:00:46.172Z,3.40
2018-12-20T15:03:13.517Z,3.00
2018-12-20T15:05:41.043Z,5.03
2018-12-20T15:08:08.385Z,4.80
2018-12-20T15:10:35.796Z,2.62
2018-12-20T15:13:03.131Z,3.65
2018-12-20T15:15:30.434Z,2.25
2018-12-20T15:17:57.748Z,5.37
2018-12-20T15:20:25.051Z,3.17
2018-12-20T15:22:52.343Z,8.18
2018-12-20T15:25:19.677Z,4.03
2018-12-20T15:27:46.997Z,5.00
2018-12-20T15:30:14.300Z,3.22
2018-12-20T15:32:41.589Z,4.45
2018-12-20T15:35:08.880Z,3.75
2018-12-20T15:37:36.276Z,5.25
2018-12-20T15:40:05.336Z,5.55
2018-12-20T15:42:32.768Z,6.47
2018-12-20T15:45:00.189Z,3.62
2018-12-20T15:47:27.573Z,4.28
2018-12-20T15:49:54.877Z,3.67
2018-12-20T15:52:22.189Z,5.55
2018-12-20T15:54:49.459Z,4.42
2018-12-20T15:57:16.744Z,3.30
2018-12-20T15:59:44.104Z,3.87
2018-12-20T16:02:11.493Z,5.58
2018-12-20T16:04:38.833Z,7.03
2018-12-20T16:07:06.196Z,5.65
2018-12-20T16:09:33.491Z,5.33
2018-12-20T16:12:00.948Z,4.28
2018-12-20T16:14:28.557Z,5.10
2018-12-20T16:16:55.860Z,4.45
2018-12-20T16:19:23.381Z,4.87
2018-12-20T16:21:50.715Z,3.75
2018-12-20T16:24:18.056Z,8.40
2018-12-20T16:26:45.437Z,3.98
2018-12-20T16:29:12.888Z,4.92
2018-12-20T16:31:40.186Z,7.47
2018-12-20T16:34:07.636Z,8.25
2018-12-20T16:36:35.164Z,6.40
2018-12-20T16:39:04.785Z,5.60
2018-12-20T16:41:32.080Z,4.40
2018-12-20T16:43:59.496Z,4.95
2018-12-20T16:46:26.825Z,4.20
2018-12-20T16:48:54.185Z,5.85
2018-12-20T16:51:21.759Z,4.58
2018-12-20T16:53:49.060Z,3.50
2018-12-20T16:56:16.565Z,5.78
2018-12-20T16:58:43.996Z,4.90
2018-12-20T17:01:11.311Z,4.95
2018-12-20T17:03:38.732Z,5.20
2018-12-20T17:06:06.188Z,6.35
2018-12-20T17:08:33.481Z,4.25
2018-12-20T17:11:00.758Z,5.25
2018-12-20T17:13:28.076Z,4.75
2018-12-20T17:15:55.374Z,6.80
2018-12-20T17:18:22.720Z,10.70
2018-12-20T17:20:50.002Z,9.53
2018-12-20T17:23:17.309Z,4.90
2018-12-20T17:25:44.600Z,6.70
2018-12-20T17:28:11.876Z,4.40
2018-12-20T17:30:39.205Z,5.78
2018-12-20T17:33:06.616Z,5.60
2018-12-20T17:35:34.084Z,4.00
2018-12-20T17:38:01.399Z,6.22
2018-12-20T17:40:28.998Z,10.65
2018-12-20T17:42:56.630Z,4.50
2018-12-20T17:45:24.029Z,5.83
2018-12-20T17:47:51.327Z,5.05
2018-12-20T17:50:18.996Z,5.87
2018-12-20T17:52:46.333Z,5.30
2018-12-20T17:55:13.688Z,4.72
2018-12-20T17:57:41.256Z,5.67
2018-12-20T18:00:10.953Z,8.55
2018-12-20T18:02:38.236Z,14.55
2018-12-20T18:05:07.143Z,3.75
2018-12-20T18:07:34.772Z,4.92
2018-12-20T18:10:02.232Z,3.80
2018-12-20T18:12:29.687Z,9.80
2018-12-20T18:14:56.956Z,3.25
2018-12-20T18:17:24.247Z,6.40
2018-12-20T18:19:51.555Z,6.47
2018-12-20T18:22:18.870Z,9.03
2018-12-20T18:24:46.234Z,4.65
2018-12-20T18:27:13.823Z,7.80
2018-12-20T18:29:41.384Z,4.05
2018-12-20T18:32:09.064Z,3.25
2018-12-20T18:34:36.876Z,3.15
2018-12-20T18:37:04.637Z,5.30
2018-12-20T18:39:32.474Z,5.08
2018-12-20T18:42:00.542Z,2.92
2018-12-20T18:44:28.517Z,4.20
2018-12-20T18:46:55.859Z,3.17
2018-12-20T18:49:23.289Z,4.12
2018-12-20T18:51:50.593Z,2.08
2018-12-20T18:54:17.907Z,7.80
2018-12-20T18:56:45.208Z,4.05
2018-12-20T18:59:12.765Z,10.58
2018-12-20T19:01:40.172Z,2.55
2018-12-20T19:04:07.504Z,4.55
2018-12-20T19:06:35.020Z,1.80
2018-12-20T19:09:04.196Z,6.90
2018-12-20T19:11:31.520Z,2.92
2018-12-20T19:13:58.981Z,3.98
2018-12-20T19:16:26.283Z,4.83
2018-12-20T19:18:53.608Z,3.45
2018-12-20T19:21:20.983Z,3.20
2018-12-20T19:23:48.681Z,3.72
2018-12-20T19:26:16.121Z,3.10
2018-12-20T19:28:43.534Z,4.97
2018-12-20T19:31:10.845Z,4.78
2018-12-20T19:33:38.185Z,4.58
2018-12-20T19:36:05.754Z,4.35
2018-12-20T19:38:33.093Z,5.53
2018-12-20T19:41:00.467Z,4.00
2018-12-20T19:43:27.897Z,8.43
2018-12-20T19:45:55.238Z,6.42
2018-12-20T19:48:22.642Z,3.77
2018-12-20T19:50:50.117Z,5.80
2018-12-20T19:53:17.857Z,4.15
2018-12-20T19:55:45.752Z,6.08
2018-12-20T19:58:13.981Z,5.87
2018-12-20T20:00:42.228Z,8.90
2018-12-20T20:03:10.555Z,5.90
2018-12-20T20:05:39.053Z,4.53
2018-12-20T20:08:06.585Z,3.72
2018-12-20T20:10:34.025Z,8.93
2018-12-20T20:13:01.558Z,3.02
2018-12-20T20:15:29.100Z,6.12
2018-12-20T20:17:56.635Z,4.08
2018-12-20T20:20:24.108Z,5.42
2018-12-20T20:22:51.635Z,4.40
2018-12-20T20:25:19.056Z,3.33
2018-12-20T20:27:46.480Z,3.22
2018-12-20T20:30:14.582Z,7.40
2018-12-20T20:32:42.063Z,9.95
2018-12-20T20:35:09.512Z,4.67
2018-12-20T20:37:37.101Z,7.72
2018-12-20T20:40:06.242Z,8.53
2018-12-20T20:42:33.548Z,6.00
2018-12-20T20:45:01.022Z,4.75
2018-12-20T20:47:28.374Z,3.62
2018-12-20T20:49:55.696Z,5.37
2018-12-20T20:52:23.001Z,5.58
2018-12-20T20:54:50.348Z,4.78
2018-12-20T20:57:17.690Z,4.95
2018-12-20T20:59:50.760Z,5.15
2018-12-20T21:02:14.373Z,4.28
2018-12-20T21:04:41.894Z,4.72
2018-12-20T21:07:09.220Z,4.92
2018-12-20T21:09:36.533Z,6.97
2018-12-20T21:12:04.188Z,3.90
2018-12-20T21:14:31.532Z,4.62
2018-12-20T21:16:58.941Z,5.20
2018-12-20T21:19:26.465Z,5.65
2018-12-20T21:21:53.769Z,6.50
2018-12-20T21:24:21.040Z,4.72
2018-12-20T21:26:48.352Z,9.18
2018-12-20T21:29:15.686Z,4.47
2018-12-20T21:31:43.341Z,8.93
2018-12-20T21:34:10.734Z,5.22
2018-12-20T21:36:38.644Z,6.20
2018-12-20T21:39:06.211Z,7.90
2018-12-20T21:41:33.628Z,7.55
2018-12-20T21:44:00.908Z,9.43
2018-12-20T21:46:28.407Z,8.58
2018-12-20T21:48:55.768Z,4.75
2018-12-20T21:51:23.068Z,5.92
2018-12-20T21:53:54.935Z,5.03
2018-12-20T21:56:20.756Z,3.47
2018-12-20T21:58:48.073Z,6.28
2018-12-20T22:01:15.578Z,9.10
2018-12-20T22:03:42.902Z,5.28
2018-12-20T22:06:10.303Z,4.83
2018-12-20T22:08:37.617Z,5.50
2018-12-20T22:11:04.900Z,6.67
2018-12-20T22:13:32.225Z,5.25
2018-12-20T22:15:59.641Z,5.80
2018-12-20T22:18:26.943Z,4.37
2018-12-20T22:20:54.228Z,4.75
2018-12-20T22:23:21.620Z,4.83
2018-12-20T22:25:48.914Z,5.28
2018-12-20T22:28:16.199Z,6.08
2018-12-20T22:30:43.492Z,4.17
2018-12-20T22:33:10.905Z,4.75
2018-12-20T22:35:38.193Z,7.33
2018-12-20T22:38:05.603Z,6.12
2018-12-20T22:40:32.901Z,6.25
2018-12-20T22:43:00.332Z,6.45
2018-12-20T22:45:27.700Z,5.25
2018-12-20T22:47:55.033Z,8.05
2018-12-20T22:50:22.328Z,4.67
2018-12-20T22:52:49.596Z,10.50
2018-12-20T22:55:16.904Z,5.08
2018-12-20T22:57:45.248Z,5.78
2018-12-20T23:00:13.656Z,8.88
2018-12-20T23:02:40.987Z,6.10
2018-12-20T23:05:08.503Z,8.03
2018-12-20T23:07:35.789Z,5.40
2018-12-20T23:10:03.685Z,8.63
2018-12-20T23:12:30.973Z,10.28
2018-12-20T23:14:58.285Z,5.17
2018-12-20T23:17:25.697Z,5.92
2018-12-20T23:19:52.981Z,9.68
2018-12-20T23:22:20.273Z,5.17
2018-12-20T23:24:47.579Z,7.10
2018-12-20T23:27:14.876Z,4.90
2018-12-20T23:29:42.300Z,8.68
2018-12-20T23:32:09.612Z,6.25
2018-12-20T23:34:36.905Z,4.70
2018-12-20T23:37:04.211Z,7.72
2018-12-20T23:39:31.495Z,6.78
2018-12-20T23:41:58.813Z,4.58
2018-12-20T23:44:26.097Z,4.47
2018-12-20T23:46:53.513Z,4.15
2018-12-20T23:49:20.932Z,6.47
2018-12-20T23:51:48.253Z,5.90
2018-12-20T23:54:15.536Z,4.50
2018-12-20T23:56:42.830Z,3.83
2018-12-20T23:59:10.129Z,7.58
